Time,TemperatureF,DewpointF,PressureIn,WindDirection,WindDirectionDegrees,WindSpeedMPH,WindSpeedGustMPH,Humidity,HourlyPrecipIn,Conditions,Clouds,dailyrainin,SoftwareType,DateUTC
2013-03-09 00:03:00,26.9,25.0,30.45,SSW,195,0.0,0.0,93,0.00,,,0.00,weatherlink.com 1.10,2013-03-09 05:03:00,
2013-03-09 00:19:00,26.8,25.0,30.45,SSW,195,0.0,0.0,94,0.00,,,0.00,weatherlink.com 1.10,2013-03-09 05:19:00,
2013-03-09 00:33:00,26.4,25.0,30.45,SSW,196,0.0,0.0,93,0.00,,,0.00,weatherlink.com 1.10,2013-03-09 05:33:00,
2013-03-09 00:48:00,25.9,24.0,30.45,SSW,196,0.0,0.0,93,0.00,,,0.00,weatherlink.com 1.10,2013-03-09 05:48:00,
2013-03-09 01:03:00,25.6,24.0,30.45,SSW,195,0.0,0.0,94,0.00,,,0.00,weatherlink.com 1.10,2013-03-09 06:03:00,
2013-03-09 01:18:00,25.5,24.0,30.45,SSW,195,0.0,0.0,94,0.00,,,0.00,weatherlink.com 1.10,2013-03-09 06:18:00,
2013-03-09 01:48:00,25.2,24.0,30.45,SSW,195,0.0,0.0,94,0.00,,,0.00,weatherlink.com 1.10,2013-03-09 06:48:00,
2013-03-09 02:03:00,24.9,24.0,30.44,SSW,195,0.0,0.0,94,0.00,,,0.00,weatherlink.com 1.10,2013-03-09 07:03:00,
2013-03-09 02:18:00,24.5,23.0,30.43,SSW,195,0.0,0.0,94,0.00,,,0.00,weatherlink.com 1.10,2013-03-09 07:18:00,
2013-03-09 02:33:00,24.3,23.0,30.42,SSW,195,0.0,0.0,94,0.00,,,0.00,weatherlink.com 1.10,2013-03-09 07:33:00,
2013-03-09 02:48:00,24.0,23.0,30.41,SSW,195,0.0,0.0,94,0.00,,,0.00,weatherlink.com 1.10,2013-03-09 07:48:00,
2013-03-09 03:03:00,24.0,23.0,30.41,SSW,195,0.0,0.0,95,0.00,,,0.00,weatherlink.com 1.10,2013-03-09 08:03:00,
2013-03-09 03:18:00,23.8,23.0,30.41,SSW,195,0.0,0.0,95,0.00,,,0.00,weatherlink.com 1.10,2013-03-09 08:18:00,
2013-03-09 03:33:00,23.8,23.0,30.40,SSW,195,0.0,0.0,95,0.00,,,0.00,weatherlink.com 1.10,2013-03-09 08:33:00,
2013-03-09 03:48:00,23.7,23.0,30.41,SSW,195,0.0,0.0,95,0.00,,,0.00,weatherlink.com 1.10,2013-03-09 08:48:00,
2013-03-09 04:03:00,23.6,22.0,30.41,SSW,195,0.0,0.0,95,0.00,,,0.00,weatherlink.com 1.10,2013-03-09 09:03:00,
2013-03-09 04:19:00,23.4,22.0,30.41,SSW,195,0.0,0.0,95,0.00,,,0.00,weatherlink.com 1.10,2013-03-09 09:19:00,
2013-03-09 04:33:00,23.4,22.0,30.41,SSW,196,0.0,0.0,95,0.00,,,0.00,weatherlink.com 1.10,2013-03-09 09:33:00,
2013-03-09 04:48:00,23.2,22.0,30.41,SSW,196,0.0,0.0,95,0.00,,,0.00,weatherlink.com 1.10,2013-03-09 09:48:00,
2013-03-09 05:03:00,21.7,21.0,30.42,SSW,195,0.0,0.0,95,0.00,,,0.00,weatherlink.com 1.10,2013-03-09 10:03:00,
2013-03-09 05:18:00,-999.0,-99.9,30.41,North,-999,-999.0,-999.0,-999,0.00,,,0.00,weatherlink.com 1.10,2013-03-09 10:18:00,
2013-03-09 05:34:00,-999.0,-99.9,30.41,North,-999,-999.0,-999.0,-999,0.00,,,0.00,weatherlink.com 1.10,2013-03-09 10:34:00,
2013-03-09 05:49:00,-999.0,-99.9,30.41,North,-999,-999.0,-999.0,-999,0.00,,,0.00,weatherlink.com 1.10,2013-03-09 10:49:00,
2013-03-09 06:04:00,-999.0,-99.9,30.41,North,-999,-999.0,-999.0,-999,0.00,,,0.00,weatherlink.com 1.10,2013-03-09 11:04:00,
2013-03-09 06:19:00,-999.0,-99.9,30.41,North,-999,-999.0,-999.0,-999,0.00,,,0.00,weatherlink.com 1.10,2013-03-09 11:19:00,
2013-03-09 06:34:00,-999.0,-99.9,30.41,North,-999,-999.0,-999.0,-999,0.00,,,0.00,weatherlink.com 1.10,2013-03-09 11:34:00,
2013-03-09 06:49:00,-999.0,-99.9,30.41,North,-999,-999.0,-999.0,-999,0.00,,,0.00,weatherlink.com 1.10,2013-03-09 11:49:00,
2013-03-09 07:04:00,-999.0,-99.9,30.41,North,-999,-999.0,-999.0,-999,0.00,,,0.00,weatherlink.com 1.10,2013-03-09 12:04:00,
2013-03-09 07:19:00,23.8,23.0,30.42,SSW,195,0.0,0.0,96,0.00,,,0.00,weatherlink.com 1.10,2013-03-09 12:19:00,
2013-03-09 07:34:00,26.6,25.0,30.43,SSW,195,0.0,0.0,94,0.00,,,0.00,weatherlink.com 1.10,2013-03-09 12:34:00,
2013-03-09 07:49:00,28.9,27.0,30.43,SE,135,1.0,1.0,91,0.00,,,0.00,weatherlink.com 1.10,2013-03-09 12:49:00,
2013-03-09 08:04:00,30.8,28.0,30.43,SE,136,0.0,1.0,89,0.00,,,0.00,weatherlink.com 1.10,2013-03-09 13:04:00,
2013-03-09 08:19:00,31.2,28.0,30.43,ESE,122,1.0,2.0,87,0.00,,,0.00,weatherlink.com 1.10,2013-03-09 13:19:00,
2013-03-09 08:34:00,32.7,29.0,30.42,SSW,211,1.0,1.0,86,0.00,,,0.00,weatherlink.com 1.10,2013-03-09 13:34:00,
2013-03-09 08:49:00,33.2,29.0,30.42,SW,228,1.0,2.0,85,0.00,,,0.00,weatherlink.com 1.10,2013-03-09 13:49:00,
2013-03-09 09:04:00,34.7,30.0,30.42,SW,215,2.0,2.0,82,0.00,,,0.00,weatherlink.com 1.10,2013-03-09 14:04:00,
2013-03-09 09:19:00,36.1,31.0,30.42,ESE,105,0.0,2.0,80,0.00,,,0.00,weatherlink.com 1.10,2013-03-09 14:19:00,
2013-03-09 09:34:00,37.7,30.0,30.41,SSE,155,1.0,3.0,75,0.00,,,0.00,weatherlink.com 1.10,2013-03-09 14:34:00,
2013-03-09 09:49:00,39.4,31.0,30.42,SSE,149,1.0,3.0,73,0.00,,,0.00,weatherlink.com 1.10,2013-03-09 14:49:00,
2013-03-09 10:05:00,40.6,32.0,30.41,SSE,160,1.0,2.0,72,0.00,,,0.00,weatherlink.com 1.10,2013-03-09 15:05:00,
2013-03-09 10:20:00,42.0,31.0,30.41,SE,126,3.0,3.0,65,0.00,,,0.00,weatherlink.com 1.10,2013-03-09 15:20:00,
2013-03-09 10:35:00,43.3,32.0,30.40,SW,232,3.0,4.0,65,0.00,,,0.00,weatherlink.com 1.10,2013-03-09 15:35:00,
2013-03-09 10:50:00,44.3,31.0,30.40,SSE,153,1.0,3.0,61,0.00,,,0.00,weatherlink.com 1.10,2013-03-09 15:50:00,
2013-03-09 11:05:00,45.9,33.0,30.39,East,85,1.0,3.0,61,0.00,,,0.00,weatherlink.com 1.10,2013-03-09 16:05:00,
2013-03-09 11:20:00,47.4,31.0,30.39,East,98,3.0,4.0,53,0.00,,,0.00,weatherlink.com 1.10,2013-03-09 16:20:00,
2013-03-09 11:35:00,47.5,30.0,30.38,SE,136,1.0,3.0,52,0.00,,,0.00,weatherlink.com 1.10,2013-03-09 16:35:00,
2013-03-09 11:50:00,49.4,33.0,30.38,NE,38,0.0,3.0,53,0.00,,,0.00,weatherlink.com 1.10,2013-03-09 16:50:00,
2013-03-09 12:05:00,50.3,31.0,30.37,SE,145,1.0,4.0,47,0.00,,,0.00,weatherlink.com 1.10,2013-03-09 17:05:00,
2013-03-09 12:27:00,51.8,31.0,30.36,South,177,3.0,5.0,45,0.00,,,0.00,weatherlink.com 1.10,2013-03-09 17:27:00,
2013-03-09 12:35:00,52.0,32.0,30.35,SSW,210,2.0,5.0,46,0.00,,,0.00,weatherlink.com 1.10,2013-03-09 17:35:00,
2013-03-09 12:50:00,53.4,30.0,30.34,East,101,3.0,4.0,41,0.00,,,0.00,weatherlink.com 1.10,2013-03-09 17:50:00,
2013-03-09 13:05:00,53.0,29.0,30.33,SE,146,2.0,4.0,40,0.00,,,0.00,weatherlink.com 1.10,2013-03-09 18:05:00,
2013-03-09 13:20:00,54.0,30.0,30.33,East,89,1.0,4.0,40,0.00,,,0.00,weatherlink.com 1.10,2013-03-09 18:20:00,
2013-03-09 13:35:00,54.4,30.0,30.32,SSE,149,4.0,7.0,40,0.00,,,0.00,weatherlink.com 1.10,2013-03-09 18:35:00,
2013-03-09 13:50:00,54.7,29.0,30.31,SSE,163,1.0,6.0,37,0.00,,,0.00,weatherlink.com 1.10,2013-03-09 18:50:00,
2013-03-09 14:05:00,55.8,32.0,30.30,East,97,2.0,4.0,40,0.00,,,0.00,weatherlink.com 1.10,2013-03-09 19:05:00,
2013-03-09 14:20:00,55.9,30.0,30.29,WSW,240,1.0,7.0,37,0.00,,,0.00,weatherlink.com 1.10,2013-03-09 19:20:00,
2013-03-09 14:36:00,57.1,30.0,30.29,East,97,3.0,3.0,36,0.00,,,0.00,weatherlink.com 1.10,2013-03-09 19:36:00,
2013-03-09 14:51:00,57.4,30.0,30.28,ENE,61,1.0,5.0,35,0.00,,,0.00,weatherlink.com 1.10,2013-03-09 19:51:00,
2013-03-09 15:06:00,57.8,31.0,30.28,South,187,1.0,3.0,36,0.00,,,0.00,weatherlink.com 1.10,2013-03-09 20:06:00,
2013-03-09 15:21:00,58.5,31.0,30.27,SW,235,2.0,3.0,36,0.00,,,0.00,weatherlink.com 1.10,2013-03-09 20:21:00,
2013-03-09 15:36:00,58.7,30.0,30.27,NNW,327,1.0,4.0,34,0.00,,,0.00,weatherlink.com 1.10,2013-03-09 20:36:00,
2013-03-09 15:51:00,59.2,31.0,30.26,East,84,0.0,2.0,35,0.00,,,0.00,weatherlink.com 1.10,2013-03-09 20:51:00,
2013-03-09 16:06:00,59.1,32.0,30.25,East,90,0.0,3.0,36,0.00,,,0.00,weatherlink.com 1.10,2013-03-09 21:06:00,
2013-03-09 16:21:00,58.1,30.0,30.25,ESE,117,0.0,4.0,34,0.00,,,0.00,weatherlink.com 1.10,2013-03-09 21:21:00,
2013-03-09 16:36:00,57.8,28.0,30.25,SW,225,1.0,5.0,32,0.00,,,0.00,weatherlink.com 1.10,2013-03-09 21:36:00,
2013-03-09 16:51:00,56.8,35.0,30.25,SW,236,0.0,2.0,44,0.00,,,0.00,weatherlink.com 1.10,2013-03-09 21:51:00,
2013-03-09 17:06:00,56.5,37.0,30.25,WNW,300,0.0,1.0,48,0.00,,,0.00,weatherlink.com 1.10,2013-03-09 22:06:00,
2013-03-09 17:21:00,54.5,38.0,30.24,WNW,300,0.0,1.0,55,0.00,,,0.00,weatherlink.com 1.10,2013-03-09 22:21:00,
2013-03-09 17:36:00,52.7,39.0,30.24,WNW,300,0.0,1.0,60,0.00,,,0.00,weatherlink.com 1.10,2013-03-09 22:36:00,
2013-03-09 17:51:00,50.6,37.0,30.24,WNW,301,0.0,1.0,60,0.00,,,0.00,weatherlink.com 1.10,2013-03-09 22:51:00,
2013-03-09 18:06:00,48.8,37.0,30.24,WNW,301,0.0,1.0,63,0.00,,,0.00,weatherlink.com 1.10,2013-03-09 23:06:00,
2013-03-09 18:21:00,47.1,35.0,30.24,WNW,300,0.0,0.0,63,0.00,,,0.00,weatherlink.com 1.10,2013-03-09 23:21:00,
2013-03-09 18:36:00,45.6,37.0,30.24,WNW,301,0.0,0.0,71,0.00,,,0.00,weatherlink.com 1.10,2013-03-09 23:36:00,
2013-03-09 18:51:00,44.0,36.0,30.24,WNW,301,0.0,0.0,74,0.00,,,0.00,weatherlink.com 1.10,2013-03-09 23:51:00,
2013-03-09 19:06:00,42.7,35.0,30.25,WNW,300,0.0,0.0,73,0.00,,,0.00,weatherlink.com 1.10,2013-03-10 00:06:00,
2013-03-09 19:21:00,41.4,33.0,30.25,WNW,300,0.0,0.0,72,0.00,,,0.00,weatherlink.com 1.10,2013-03-10 00:21:00,
2013-03-09 19:36:00,40.5,34.0,30.24,WNW,300,0.0,0.0,76,0.00,,,0.00,weatherlink.com 1.10,2013-03-10 00:36:00,
2013-03-09 19:51:00,39.7,33.0,30.24,WNW,299,0.0,0.0,77,0.00,,,0.00,weatherlink.com 1.10,2013-03-10 00:51:00,
2013-03-09 20:06:00,38.8,33.0,30.24,WNW,301,0.0,0.0,78,0.00,,,0.00,weatherlink.com 1.10,2013-03-10 01:06:00,
2013-03-09 20:21:00,38.3,33.0,30.24,WNW,301,0.0,0.0,80,0.00,,,0.00,weatherlink.com 1.10,2013-03-10 01:21:00,
2013-03-09 20:36:00,37.8,32.0,30.24,WNW,300,0.0,1.0,81,0.00,,,0.00,weatherlink.com 1.10,2013-03-10 01:36:00,
2013-03-09 20:51:00,37.4,32.0,30.24,WNW,301,0.0,1.0,82,0.00,,,0.00,weatherlink.com 1.10,2013-03-10 01:51:00,
2013-03-09 21:06:00,37.0,32.0,30.24,East,96,1.0,1.0,82,0.00,,,0.00,weatherlink.com 1.10,2013-03-10 02:06:00,
2013-03-09 21:21:00,36.5,32.0,30.24,East,96,1.0,1.0,82,0.00,,,0.00,weatherlink.com 1.10,2013-03-10 02:21:00,
2013-03-09 21:36:00,36.0,31.0,30.24,East,96,0.0,1.0,83,0.00,,,0.00,weatherlink.com 1.10,2013-03-10 02:36:00,
2013-03-09 21:51:00,35.8,31.0,30.24,East,96,0.0,1.0,84,0.00,,,0.00,weatherlink.com 1.10,2013-03-10 02:51:00,
2013-03-09 22:06:00,35.7,32.0,30.24,East,82,1.0,1.0,85,0.00,,,0.00,weatherlink.com 1.10,2013-03-10 03:06:00,
2013-03-09 22:21:00,35.7,31.0,30.24,East,90,1.0,1.0,84,0.00,,,0.00,weatherlink.com 1.10,2013-03-10 03:21:00,
2013-03-09 22:36:00,35.7,32.0,30.24,East,91,0.0,1.0,86,0.00,,,0.00,weatherlink.com 1.10,2013-03-10 03:36:00,
2013-03-09 22:51:00,35.4,31.0,30.23,East,90,0.0,1.0,83,0.00,,,0.00,weatherlink.com 1.10,2013-03-10 03:51:00,
2013-03-09 23:06:00,35.5,31.0,30.23,East,90,0.0,1.0,82,0.00,,,0.00,weatherlink.com 1.10,2013-03-10 04:06:00,
2013-03-09 23:21:00,35.7,31.0,30.23,East,85,0.0,1.0,84,0.00,,,0.00,weatherlink.com 1.10,2013-03-10 04:21:00,
2013-03-09 23:36:00,35.5,30.0,30.22,ENE,77,0.0,1.0,81,0.00,,,0.00,weatherlink.com 1.10,2013-03-10 04:36:00,
2013-03-09 23:51:00,35.6,31.0,30.22,East,83,0.0,1.0,82,0.00,,,0.00,weatherlink.com 1.10,2013-03-10 04:51:00,